Time;durP1;ratioP1;P1;durP2;ratioP2;P2;SDS_P1;SDS_P2;PMS_P1;PMS_P2;Temp;Humidity;BMP_temperature;BMP_pressure;BME280_temperature;BME280_humidity;BME280_pressure;Samples;Min_cycle;Max_cycle;Signal;HPM_P1;HPM_P2
2023/03/16 00:01:15;;;;;;;3.10;2.80;;;;;;;4.72;64.55;99864.75;6116187;23;20210;-77
2023/03/16 00:03:41;;;;;;;4.25;2.10;;;;;;;4.59;64.52;99870.38;6117189;23;20575;-77
2023/03/16 00:06:06;;;;;;;2.70;2.10;;;;;;;4.50;64.95;99865.50;6117276;23;20168;-78
2023/03/16 00:08:33;;;;;;;2.60;2.37;;;;;;;4.37;64.63;99872.84;6117597;23;20902;-77
2023/03/16 00:10:59;;;;;;;3.63;2.72;;;;;;;4.28;64.99;99867.13;6117969;23;20214;-78
2023/03/16 00:13:24;;;;;;;2.67;2.40;;;;;;;4.21;65.24;99867.34;6118071;23;20176;-78
2023/03/16 00:15:52;;;;;;;3.13;2.10;;;;;;;4.20;65.55;99876.03;6118775;23;20203;-78
2023/03/16 00:18:18;;;;;;;4.00;2.67;;;;;;;4.19;65.31;99878.69;6118380;23;20327;-77
2023/03/16 00:20:43;;;;;;;6.05;2.25;;;;;;;4.20;65.32;99870.81;6117617;23;20186;-78
2023/03/16 00:23:09;;;;;;;2.83;2.63;;;;;;;4.26;65.19;99871.53;6119661;23;20183;-79
2023/03/16 00:25:34;;;;;;;10.87;4.27;;;;;;;4.32;64.90;99873.91;6117666;23;20204;-76
2023/03/16 00:28:02;;;;;;;5.17;3.20;;;;;;;4.36;64.79;99881.56;6117480;23;20633;-79
2023/03/16 00:30:29;;;;;;;3.40;1.98;;;;;;;4.39;65.05;99883.22;6118092;23;20172;-77
2023/03/16 00:32:54;;;;;;;5.05;2.70;;;;;;;4.43;65.20;99884.81;6118239;23;20274;-76
2023/03/16 00:35:20;;;;;;;6.37;3.10;;;;;;;4.44;64.95;99871.75;6117810;23;20211;-77
2023/03/16 00:37:46;;;;;;;4.13;2.97;;;;;;;4.47;64.54;99883.81;6115394;23;20709;-76
2023/03/16 00:40:11;;;;;;;5.40;3.03;;;;;;;4.44;64.68;99873.50;6101282;23;20975;-77
2023/03/16 00:42:37;;;;;;;2.87;2.13;;;;;;;4.38;64.97;99871.97;6117127;23;20854;-77
2023/03/16 00:45:04;;;;;;;3.93;2.40;;;;;;;4.31;64.92;99870.47;6116735;23;20246;-76
2023/03/16 00:47:32;;;;;;;6.00;2.25;;;;;;;4.25;65.21;99869.84;6117252;23;20235;-77
2023/03/16 00:49:58;;;;;;;7.13;2.08;;;;;;;4.25;65.46;99862.03;6116389;23;20520;-78
2023/03/16 00:52:26;;;;;;;2.28;1.73;;;;;;;4.25;65.41;99859.44;6116876;23;20185;-77
2023/03/16 00:54:52;;;;;;;2.05;1.70;;;;;;;4.25;65.14;99859.44;6116788;23;20195;-77
2023/03/16 00:57:20;;;;;;;1.92;1.60;;;;;;;4.23;65.30;99851.69;6116520;23;20215;-78
2023/03/16 00:59:46;;;;;;;3.15;1.70;;;;;;;4.20;65.00;99855.22;6116457;23;20231;-77
2023/03/16 01:02:12;;;;;;;8.60;2.00;;;;;;;4.19;65.07;99856.13;6121044;23;20179;-76
2023/03/16 01:04:41;;;;;;;3.00;1.70;;;;;;;4.21;65.54;99853.47;6122912;23;20536;-76
2023/03/16 01:07:11;;;;;;;3.03;2.13;;;;;;;4.21;65.52;99859.53;6122247;23;20330;-76
2023/03/16 01:09:38;;;;;;;2.15;1.65;;;;;;;4.18;65.46;99854.41;6122944;23;20172;-77
2023/03/16 01:12:05;;;;;;;2.83;1.77;;;;;;;4.17;65.38;99847.53;6123330;23;20231;-76
2023/03/16 01:14:32;;;;;;;2.78;2.10;;;;;;;4.16;65.15;99855.41;6096893;23;20215;-77
2023/03/16 01:16:57;;;;;;;1.95;1.45;;;;;;;4.14;65.14;99847.66;6095857;23;20230;-77
2023/03/16 01:19:22;;;;;;;5.43;1.70;;;;;;;4.15;65.05;99849.31;6123414;23;20477;-76
2023/03/16 01:21:48;;;;;;;2.03;1.83;;;;;;;4.15;65.31;99843.28;6097405;23;20182;-76
2023/03/16 01:24:14;;;;;;;2.37;1.73;;;;;;;4.11;65.09;99836.50;6096987;23;20294;-76
2023/03/16 01:26:39;;;;;;;1.50;1.40;;;;;;;4.08;65.25;99841.78;6098358;23;20427;-76
2023/03/16 01:29:04;;;;;;;4.17;2.00;;;;;;;4.05;65.21;99831.50;6098783;23;20187;-77
2023/03/16 01:31:30;;;;;;;1.63;1.50;;;;;;;4.02;65.23;99837.63;6117071;23;20263;-76
2023/03/16 01:33:57;;;;;;;4.15;2.00;;;;;;;3.93;65.20;99830.16;6093165;23;20175;-77
2023/03/16 01:36:25;;;;;;;2.92;2.20;;;;;;;3.82;65.90;99829.66;6091264;23;20227;-76
2023/03/16 01:39:00;;;;;;;3.53;2.50;;;;;;;3.73;65.65;99839.44;6118466;23;20179;-76
2023/03/16 01:41:30;;;;;;;2.63;1.50;;;;;;;3.68;65.88;99845.69;6093611;23;20203;-75
2023/03/16 01:43:57;;;;;;;2.40;1.90;;;;;;;3.59;66.09;99836.41;6117588;23;20287;-77
2023/03/16 01:46:28;;;;;;;3.97;1.77;;;;;;;3.53;66.10;99834.03;6089706;23;20286;-77
2023/03/16 01:49:22;;;;;;;1.60;1.50;;;;;;;3.45;66.53;99831.66;6116302;23;20175;-77
2023/03/16 01:51:50;;;;;;;2.38;1.58;;;;;;;3.36;66.35;99826.75;6092763;23;20263;-76
2023/03/16 01:54:35;;;;;;;2.67;2.05;;;;;;;3.30;66.52;99817.41;6090418;23;20199;-77
2023/03/16 01:57:15;;;;;;;2.33;1.70;;;;;;;3.32;66.88;99827.72;6119375;23;20227;-77
2023/03/16 01:59:47;;;;;;;1.52;1.42;;;;;;;3.32;66.61;99831.22;6091902;23;20242;-75
2023/03/16 02:02:17;;;;;;;3.15;2.08;;;;;;;3.33;66.65;99827.69;6091980;23;20234;-76
2023/03/16 02:04:53;;;;;;;3.88;2.33;;;;;;;3.31;66.69;99834.69;6117541;23;20583;-77
2023/03/16 02:07:23;;;;;;;2.42;1.70;;;;;;;3.27;66.57;99827.06;6115932;23;20183;-77
2023/03/16 02:09:55;;;;;;;2.97;1.90;;;;;;;3.21;66.82;99827.22;6116786;23;20538;-77
2023/03/16 02:12:22;;;;;;;2.22;2.03;;;;;;;3.16;66.59;99817.00;6116174;23;20182;-76
2023/03/16 02:14:52;;;;;;;6.40;2.00;;;;;;;3.14;66.83;99828.31;6117871;23;20626;-76
2023/03/16 02:17:22;;;;;;;2.27;2.00;;;;;;;3.10;66.72;99835.31;6093173;23;20300;-77
2023/03/16 02:19:54;;;;;;;4.18;2.20;;;;;;;3.08;66.58;99826.75;6092667;23;20736;-77
2023/03/16 02:22:23;;;;;;;3.92;1.70;;;;;;;3.07;66.99;99825.03;6093273;23;20212;-77
2023/03/16 02:24:53;;;;;;;3.70;1.40;;;;;;;3.08;66.72;99825.00;6093359;23;20204;-77
2023/03/16 02:27:46;;;;;;;4.25;1.95;;;;;;;3.11;66.59;99824.06;6092858;23;20186;-76
2023/03/16 02:30:16;;;;;;;4.32;1.85;;;;;;;3.10;66.69;99812.81;6073002;23;20207;-77
2023/03/16 02:32:55;;;;;;;4.35;2.13;;;;;;;3.08;66.74;99806.84;6091668;23;20254;-77
2023/03/16 02:35:20;;;;;;;3.65;2.80;;;;;;;3.07;66.86;99812.06;6090861;23;20514;-76
2023/03/16 02:37:47;;;;;;;2.08;1.88;;;;;;;3.03;67.13;99803.53;6091195;23;20235;-77
2023/03/16 02:40:23;;;;;;;4.00;2.20;;;;;;;3.00;67.17;99806.22;6090408;23;20183;-77
2023/03/16 02:42:54;;;;;;;3.95;1.75;;;;;;;2.99;66.89;99806.25;6116831;23;20190;-77
2023/03/16 02:45:24;;;;;;;2.13;1.80;;;;;;;2.98;67.21;99805.41;6118278;23;20508;-76
2023/03/16 02:47:52;;;;;;;2.33;1.20;;;;;;;2.96;66.98;99802.00;6116141;23;20183;-77
2023/03/16 02:50:18;;;;;;;2.60;1.80;;;;;;;2.94;67.20;99789.97;6088014;23;20555;-77
2023/03/16 02:52:44;;;;;;;2.55;1.90;;;;;;;2.93;67.06;99786.53;6117653;23;20179;-77
2023/03/16 02:55:10;;;;;;;4.70;3.10;;;;;;;2.95;67.17;99784.75;6090779;23;20588;-76
2023/03/16 02:57:35;;;;;;;5.77;2.37;;;;;;;3.00;66.95;99777.66;6090743;23;20799;-76
2023/03/16 03:00:11;;;;;;;1.67;1.45;;;;;;;3.01;66.53;99787.13;6091617;23;20183;-76
2023/03/16 03:02:38;;;;;;;1.90;1.80;;;;;;;3.03;67.02;99781.91;6092990;23;20183;-77
2023/03/16 03:05:04;;;;;;;3.40;2.63;;;;;;;3.03;66.83;99780.16;6119990;23;20187;-76
2023/03/16 03:07:30;;;;;;;5.30;2.30;;;;;;;3.03;66.60;99776.72;6093163;23;20704;-77
2023/03/16 03:10:04;;;;;;;2.33;2.05;;;;;;;3.00;66.88;99776.81;6095026;23;20557;-76
2023/03/16 03:12:31;;;;;;;2.47;1.70;;;;;;;3.01;66.56;99770.72;6095742;23;20549;-76
2023/03/16 03:14:57;;;;;;;2.13;1.73;;;;;;;3.01;66.64;99778.50;6095546;23;20692;-75
2023/03/16 03:17:28;;;;;;;3.00;2.35;;;;;;;3.01;66.63;99775.91;6096690;23;20211;-77
2023/03/16 03:20:01;;;;;;;3.20;1.75;;;;;;;2.99;66.51;99775.09;6120839;23;20193;-77
2023/03/16 03:22:26;;;;;;;3.58;2.13;;;;;;;2.98;67.04;99763.88;6098819;23;20610;-77
2023/03/16 03:24:52;;;;;;;2.50;2.00;;;;;;;2.98;66.98;99766.47;6123240;23;20576;-76
2023/03/16 03:27:21;;;;;;;3.33;1.80;;;;;;;2.99;66.76;99762.13;6097487;23;20483;-75
2023/03/16 03:29:49;;;;;;;1.40;1.30;;;;;;;2.99;66.61;99760.38;6083547;23;20267;-77
2023/03/16 03:32:15;;;;;;;2.50;1.80;;;;;;;3.00;66.66;99759.50;6120987;23;20203;-77
2023/03/16 03:34:41;;;;;;;3.80;1.87;;;;;;;2.99;66.75;99767.31;6095038;23;20920;-76
2023/03/16 03:37:06;;;;;;;4.30;1.73;;;;;;;2.99;66.53;99762.13;6094359;23;20450;-77
2023/03/16 03:39:34;;;;;;;2.90;1.83;;;;;;;2.95;66.40;99766.56;6117639;23;20194;-77
2023/03/16 03:42:01;;;;;;;1.90;1.63;;;;;;;2.94;66.50;99766.59;6095062;23;20179;-76
2023/03/16 03:44:27;;;;;;;3.63;2.15;;;;;;;2.93;66.83;99763.16;6120555;23;20199;-77
2023/03/16 03:46:53;;;;;;;2.20;2.00;;;;;;;2.92;66.44;99756.28;6093584;23;20231;-77
2023/03/16 03:49:19;;;;;;;2.13;1.53;;;;;;;2.91;66.81;99762.34;6094111;23;20187;-77
2023/03/16 03:51:46;;;;;;;1.98;1.88;;;;;;;2.90;66.86;99765.00;6095103;23;20179;-77
2023/03/16 03:54:15;;;;;;;2.65;1.55;;;;;;;2.87;66.72;99756.41;6095373;23;20204;-77
2023/03/16 03:56:50;;;;;;;2.30;1.40;;;;;;;2.86;66.68;99748.66;6095208;23;20739;-76
2023/03/16 03:59:16;;;;;;;2.83;2.20;;;;;;;2.83;66.93;99754.78;6119246;23;20187;-77
2023/03/16 04:02:05;;;;;;;3.25;2.40;;;;;;;2.72;67.04;99751.66;6102519;23;20198;-76
2023/03/16 04:04:41;;;;;;;2.92;1.27;;;;;;;2.61;67.19;99753.72;6096352;23;20169;-77
2023/03/16 04:07:09;;;;;;;2.28;2.08;;;;;;;2.56;67.28;99756.44;6095292;23;20658;-76
2023/03/16 04:09:35;;;;;;;2.17;1.98;;;;;;;2.54;67.64;99766.03;6095704;23;20174;-76
2023/03/16 04:12:22;;;;;;;1.83;1.50;;;;;;;2.54;67.37;99762.56;6120557;23;20185;-76
2023/03/16 04:14:47;;;;;;;16.50;15.32;;;;;;;2.54;67.48;99773.81;6091026;23;20254;-77
2023/03/16 04:17:14;;;;;;;3.45;3.15;;;;;;;2.56;67.54;99761.63;6095083;23;20222;-77
2023/03/16 04:19:41;;;;;;;2.95;2.33;;;;;;;2.58;67.46;99764.19;6110837;23;20539;-77
2023/03/16 04:22:11;;;;;;;1.45;1.35;;;;;;;2.60;67.32;99759.81;6120346;23;20178;-77
2023/03/16 04:24:37;;;;;;;2.28;2.08;;;;;;;2.60;67.59;99759.81;6119201;23;20637;-77
2023/03/16 04:27:03;;;;;;;2.70;1.80;;;;;;;2.58;67.59;99769.38;6119715;23;20164;-77
2023/03/16 04:29:28;;;;;;;2.73;1.93;;;;;;;2.53;67.64;99764.31;6119055;23;20603;-77
2023/03/16 04:31:56;;;;;;;1.90;1.20;;;;;;;2.47;67.65;99766.25;6119477;23;20164;-76
2023/03/16 04:34:23;;;;;;;1.90;1.55;;;;;;;2.43;67.76;99760.28;6119692;23;20175;-77
2023/03/16 04:36:52;;;;;;;4.45;1.55;;;;;;;2.42;68.03;99759.44;6120227;23;20278;-77
2023/03/16 04:39:21;;;;;;;2.60;2.05;;;;;;;2.43;68.03;99761.16;6115721;23;20167;-77
2023/03/16 04:41:47;;;;;;;2.08;1.90;;;;;;;2.44;67.54;99762.00;6114324;23;20501;-77
2023/03/16 04:44:18;;;;;;;5.05;2.15;;;;;;;2.44;67.67;99757.66;6113041;23;20179;-77
2023/03/16 04:46:44;;;;;;;2.83;2.00;;;;;;;2.44;67.70;99747.28;6112757;23;20740;-76
2023/03/16 04:49:10;;;;;;;1.70;1.52;;;;;;;2.44;67.53;99751.63;6116081;23;20163;-77
2023/03/16 04:51:39;;;;;;;2.15;1.83;;;;;;;2.45;67.74;99753.31;6118058;23;20159;-77
2023/03/16 04:54:07;;;;;;;2.00;1.63;;;;;;;2.46;67.77;99744.66;6143992;23;20180;-76
2023/03/16 04:56:35;;;;;;;1.98;1.40;;;;;;;2.46;67.87;99736.88;6119313;23;20531;-77
2023/03/16 04:59:05;;;;;;;2.47;1.90;;;;;;;2.48;67.79;99744.59;6118391;23;20170;-77
2023/03/16 05:01:42;;;;;;;2.53;1.92;;;;;;;2.49;67.83;99749.75;6118554;23;20251;-77
2023/03/16 05:04:08;;;;;;;1.52;1.30;;;;;;;2.48;67.63;99742.84;6145242;23;20175;-77
2023/03/16 05:06:36;;;;;;;1.85;1.75;;;;;;;2.45;67.87;99742.94;6119839;23;20167;-76
2023/03/16 05:09:04;;;;;;;1.87;1.40;;;;;;;2.43;67.65;99736.94;6119393;23;20177;-77
2023/03/16 05:11:32;;;;;;;2.67;2.47;;;;;;;2.40;67.85;99737.91;6117559;23;20176;-77
2023/03/16 05:14:03;;;;;;;4.55;2.13;;;;;;;2.37;67.82;99732.78;6118264;23;20200;-77
2023/03/16 05:16:32;;;;;;;2.22;1.60;;;;;;;2.36;68.06;99728.50;6118500;23;20775;-77
2023/03/16 05:18:58;;;;;;;2.80;2.07;;;;;;;2.36;67.87;99728.50;6118045;23;20173;-77
2023/03/16 05:21:30;;;;;;;2.42;1.80;;;;;;;2.35;68.06;99721.63;6120344;23;20171;-77
2023/03/16 05:24:00;;;;;;;5.47;1.90;;;;;;;2.36;68.09;99720.72;6119062;23;20188;-77
2023/03/16 05:26:25;;;;;;;2.20;1.50;;;;;;;2.36;68.07;99725.91;6120202;23;20155;-76
2023/03/16 05:28:51;;;;;;;2.90;1.77;;;;;;;2.36;68.05;99727.66;6119424;23;20246;-77
2023/03/16 05:31:21;;;;;;;1.45;1.35;;;;;;;2.36;68.19;99727.66;6119316;23;20614;-75
2023/03/16 05:33:51;;;;;;;4.25;1.33;;;;;;;2.37;68.04;99718.97;6119299;23;20632;-77
2023/03/16 05:36:19;;;;;;;1.63;1.50;;;;;;;2.36;67.82;99728.50;6119254;23;20314;-77
2023/03/16 05:38:47;;;;;;;2.80;1.80;;;;;;;2.34;67.92;99725.09;6117972;23;20186;-77
2023/03/16 05:41:22;;;;;;;2.13;1.80;;;;;;;2.29;68.21;99736.50;6119188;23;20545;-78
2023/03/16 05:44:08;;;;;;;2.65;2.00;;;;;;;2.20;68.65;99740.19;6128990;23;20224;-78
2023/03/16 05:46:49;;;;;;;2.13;1.50;;;;;;;2.12;68.80;99747.31;6117962;23;20181;-77
2023/03/16 05:49:16;;;;;;;2.23;1.93;;;;;;;2.07;68.51;99744.00;6118631;23;20182;-77
2023/03/16 05:51:41;;;;;;;3.20;1.90;;;;;;;2.05;68.87;99745.78;6144658;23;20173;-78
2023/03/16 05:54:07;;;;;;;4.70;1.50;;;;;;;2.08;68.64;99749.16;6118480;23;20275;-77
2023/03/16 05:56:41;;;;;;;3.35;2.10;;;;;;;2.11;68.56;99746.47;6119627;23;20549;-78
2023/03/16 05:59:07;;;;;;;3.03;2.30;;;;;;;2.15;68.83;99740.31;6118343;23;20259;-78
2023/03/16 06:01:33;;;;;;;2.90;2.25;;;;;;;2.23;68.28;99750.47;6093729;23;20210;-78
2023/03/16 06:03:59;;;;;;;3.80;3.23;;;;;;;2.29;68.22;99749.44;6144962;23;20376;-78
2023/03/16 06:06:27;;;;;;;4.72;3.70;;;;;;;2.32;68.26;99747.66;6118775;23;20665;-78
2023/03/16 06:09:00;;;;;;;5.63;3.08;;;;;;;2.34;68.12;99745.84;6117916;23;20529;-78
2023/03/16 06:11:26;;;;;;;7.25;3.05;;;;;;;2.37;68.01;99744.91;6144334;23;20246;-77
2023/03/16 06:13:52;;;;;;;4.13;3.10;;;;;;;2.36;68.47;99749.25;6118355;23;20566;-78
2023/03/16 06:16:17;;;;;;;4.63;3.10;;;;;;;2.35;68.52;99755.34;6118173;23;20213;-75
2023/03/16 06:18:43;;;;;;;8.35;4.72;;;;;;;2.38;68.48;99755.25;6117832;23;20193;-77
2023/03/16 06:21:09;;;;;;;3.20;2.90;;;;;;;2.47;68.40;99748.09;6119040;23;20241;-77
2023/03/16 06:23:35;;;;;;;4.18;2.88;;;;;;;2.50;68.18;99748.00;6119064;23;21002;-78
2023/03/16 06:26:03;;;;;;;4.57;2.78;;;;;;;2.55;68.25;99740.94;6145675;23;20537;-78
2023/03/16 06:28:30;;;;;;;2.40;2.20;;;;;;;2.61;68.21;99743.38;6144693;23;20189;-77
2023/03/16 06:30:56;;;;;;;3.30;2.37;;;;;;;2.70;67.98;99747.41;6117772;23;20183;-78
2023/03/16 06:33:25;;;;;;;6.18;2.05;;;;;;;2.81;67.79;99756.59;6118300;23;20419;-78
2023/03/16 06:35:50;;;;;;;2.87;2.37;;;;;;;2.92;67.96;99750.22;6117358;23;21111;-78
2023/03/16 06:38:25;;;;;;;5.80;2.45;;;;;;;3.02;67.86;99756.84;6118403;23;20267;-78
2023/03/16 06:41:17;;;;;;;5.78;1.88;;;;;;;3.15;67.80;99760.75;6140803;23;20190;-78
2023/03/16 06:43:44;;;;;;;1.67;1.50;;;;;;;3.25;67.38;99762.19;6119324;23;20206;-78
2023/03/16 06:46:11;;;;;;;2.92;1.85;;;;;;;3.33;67.27;99760.19;6119847;23;20241;-78
2023/03/16 06:48:37;;;;;;;3.10;1.87;;;;;;;3.42;66.99;99753.84;6119878;23;20598;-78
2023/03/16 06:51:03;;;;;;;2.65;2.45;;;;;;;3.48;66.68;99766.66;6120363;23;20182;-78
2023/03/16 06:53:29;;;;;;;2.15;1.95;;;;;;;3.54;66.56;99766.47;6121291;23;20183;-78
2023/03/16 06:55:55;;;;;;;4.15;3.22;;;;;;;3.63;66.26;99762.72;6119953;23;20230;-79
2023/03/16 06:58:21;;;;;;;6.43;3.47;;;;;;;3.73;66.16;99760.66;6121149;23;20839;-78
2023/03/16 07:00:46;;;;;;;4.80;2.50;;;;;;;3.82;65.82;99755.16;6127312;23;20189;-78
2023/03/16 07:03:12;;;;;;;2.97;2.10;;;;;;;3.90;65.75;99741.91;6146264;23;20644;-78
2023/03/16 07:05:42;;;;;;;7.28;5.32;;;;;;;3.95;65.71;99735.66;6119168;23;20195;-78
2023/03/16 07:08:09;;;;;;;7.70;3.67;;;;;;;3.98;65.58;99738.13;6120219;23;20182;-78
2023/03/16 07:10:34;;;;;;;3.47;2.30;;;;;;;4.04;65.25;99721.47;6120388;23;20183;-78
2023/03/16 07:13:00;;;;;;;2.43;2.10;;;;;;;4.13;64.90;99725.50;6145791;23;20405;-78
2023/03/16 07:15:25;;;;;;;2.00;1.70;;;;;;;4.27;64.99;99725.03;6119805;23;20211;-78
2023/03/16 07:17:53;;;;;;;3.33;2.00;;;;;;;4.41;64.64;99720.16;6119602;23;20207;-78
2023/03/16 07:20:20;;;;;;;1.40;1.30;;;;;;;4.55;64.31;99707.50;6120354;23;20205;-78
2023/03/16 07:22:45;;;;;;;2.78;2.10;;;;;;;4.68;63.78;99701.84;6146699;23;20636;-78
2023/03/16 07:25:12;;;;;;;3.53;2.00;;;;;;;4.77;63.45;99704.09;6118211;23;20206;-78
2023/03/16 07:27:44;;;;;;;2.28;1.95;;;;;;;4.84;63.02;99705.56;6120222;23;20181;-78
2023/03/16 07:30:13;;;;;;;2.38;2.17;;;;;;;4.91;63.18;99707.00;6116632;23;20529;-75
2023/03/16 07:32:40;;;;;;;6.45;2.50;;;;;;;4.99;62.70;99686.72;6117758;23;20174;-75
2023/03/16 07:35:07;;;;;;;4.35;2.20;;;;;;;5.08;62.83;99682.94;6119238;23;20199;-75
2023/03/16 07:37:33;;;;;;;3.38;2.35;;;;;;;5.14;62.70;99666.22;6144914;23;20707;-75
2023/03/16 07:40:00;;;;;;;3.08;2.50;;;;;;;5.17;62.20;99679.09;6137941;23;20499;-75
2023/03/16 07:42:26;;;;;;;2.13;1.93;;;;;;;5.18;62.22;99684.22;6112730;23;20205;-77
2023/03/16 07:45:05;;;;;;;4.43;2.38;;;;;;;5.21;62.07;99696.28;6122758;23;20202;-77
2023/03/16 07:47:30;;;;;;;2.63;2.42;;;;;;;5.24;62.07;99696.19;6118698;23;20173;-78
2023/03/16 07:50:00;;;;;;;2.10;1.80;;;;;;;5.26;61.99;99704.75;6115858;23;20193;-77
2023/03/16 07:52:27;;;;;;;2.90;2.53;;;;;;;5.30;62.13;99706.34;6113906;23;20262;-78
2023/03/16 07:54:53;;;;;;;3.05;2.20;;;;;;;5.36;62.16;99695.66;6115945;23;20196;-77
2023/03/16 07:57:19;;;;;;;3.75;2.30;;;;;;;5.46;61.94;99686.56;6139247;23;20592;-77
2023/03/16 07:59:46;;;;;;;4.03;2.85;;;;;;;5.53;62.30;99680.19;6114425;23;20284;-77
2023/03/16 08:02:17;;;;;;;3.20;2.60;;;;;;;5.54;62.01;99678.44;6115230;23;20244;-78
2023/03/16 08:04:43;;;;;;;3.97;3.00;;;;;;;5.62;61.65;99675.53;6116281;23;20239;-77
2023/03/16 08:07:10;;;;;;;3.40;2.40;;;;;;;5.77;61.65;99682.66;6116139;23;20188;-77
2023/03/16 08:09:52;;;;;;;5.50;3.33;;;;;;;6.32;60.78;99682.03;6115141;23;20202;-78
2023/03/16 08:12:23;;;;;;;3.97;3.25;;;;;;;7.06;59.10;99676.88;6116409;23;20186;-78
2023/03/16 08:14:48;;;;;;;3.93;2.30;;;;;;;7.87;57.48;99670.22;6117298;23;20550;-77
2023/03/16 08:17:18;;;;;;;3.75;2.80;;;;;;;8.62;55.38;99678.50;6118556;23;20264;-78
2023/03/16 08:19:47;;;;;;;4.13;3.50;;;;;;;9.26;53.71;99679.28;6116120;23;20273;-78
2023/03/16 08:22:13;;;;;;;3.42;3.05;;;;;;;9.88;52.44;99663.44;6116906;23;20642;-78
2023/03/16 08:24:42;;;;;;;4.35;3.45;;;;;;;10.51;51.13;99654.41;6119961;23;20221;-78
2023/03/16 08:27:10;;;;;;;5.38;3.80;;;;;;;10.90;50.16;99656.28;6119568;23;20192;-78
2023/03/16 08:29:39;;;;;;;4.93;3.80;;;;;;;11.14;49.49;99651.22;6117695;23;20208;-77
2023/03/16 08:32:06;;;;;;;6.20;4.18;;;;;;;11.45;48.62;99663.19;6120330;23;20408;-78
2023/03/16 08:34:39;;;;;;;3.80;3.40;;;;;;;11.72;47.20;99662.31;6145166;23;20425;-77
2023/03/16 08:37:05;;;;;;;3.97;3.20;;;;;;;12.01;46.45;99665.59;6117505;23;20278;-78
2023/03/16 08:39:32;;;;;;;3.97;3.28;;;;;;;12.31;45.65;99680.22;6115402;23;20183;-78
2023/03/16 08:41:58;;;;;;;6.65;4.55;;;;;;;12.47;45.02;99670.28;6116838;23;20644;-78
2023/03/16 08:44:37;;;;;;;6.35;3.95;;;;;;;12.56;44.79;99664.38;6118527;23;20203;-78
2023/03/16 08:47:04;;;;;;;3.83;3.43;;;;;;;12.90;44.26;99656.69;6120280;23;20171;-78
2023/03/16 08:49:29;;;;;;;3.92;3.53;;;;;;;13.44;43.35;99658.03;6149118;23;20156;-78
2023/03/16 08:52:02;;;;;;;5.35;4.00;;;;;;;13.89;42.30;99648.44;6123456;23;20657;-79
2023/03/16 08:54:28;;;;;;;8.32;3.55;;;;;;;13.84;41.87;99642.69;6151129;23;20183;-78
2023/03/16 08:56:53;;;;;;;3.20;2.57;;;;;;;14.00;41.61;99638.88;6148892;23;20200;-78
2023/03/16 08:59:19;;;;;;;3.10;2.43;;;;;;;14.44;40.59;99630.09;6149096;23;20200;-78
2023/03/16 09:01:44;;;;;;;4.67;3.70;;;;;;;14.92;39.52;99628.94;6151095;23;20155;-78
2023/03/16 09:04:11;;;;;;;7.00;4.63;;;;;;;15.33;37.43;99620.25;6151109;23;20528;-78
2023/03/16 09:06:38;;;;;;;7.55;4.32;;;;;;;15.68;36.77;99605.84;6151355;23;20171;-78
2023/03/16 09:09:03;;;;;;;7.20;3.78;;;;;;;15.87;36.54;99598.03;6151178;23;20278;-78
2023/03/16 09:11:32;;;;;;;3.23;2.80;;;;;;;15.87;36.45;99591.91;6151287;23;20551;-78
2023/03/16 09:13:59;;;;;;;4.57;3.15;;;;;;;15.79;36.54;99589.09;6149984;23;20172;-78
2023/03/16 09:16:24;;;;;;;3.30;3.00;;;;;;;15.75;36.59;99595.63;6150503;23;20198;-78
2023/03/16 09:18:51;;;;;;;4.23;2.83;;;;;;;15.58;37.00;99602.31;6150696;23;20819;-78
2023/03/16 09:21:17;;;;;;;2.42;2.22;;;;;;;15.58;36.70;99608.47;6150633;23;20630;-78
2023/03/16 09:23:43;;;;;;;2.70;2.47;;;;;;;15.39;36.30;99587.13;6149802;23;20182;-78
2023/03/16 09:26:09;;;;;;;2.33;2.00;;;;;;;15.18;36.57;99577.38;6150843;23;20406;-78
2023/03/16 09:28:37;;;;;;;2.63;2.03;;;;;;;14.90;36.86;99578.81;6150487;23;20229;-77
2023/03/16 09:31:04;;;;;;;2.60;2.22;;;;;;;14.58;37.24;99578.78;6150822;23;20179;-78
2023/03/16 09:33:30;;;;;;;2.90;2.25;;;;;;;14.30;37.26;99586.25;6149032;23;20428;-78
2023/03/16 09:35:57;;;;;;;3.08;1.98;;;;;;;14.10;37.56;99579.91;6149438;23;20206;-78
2023/03/16 09:38:27;;;;;;;2.05;1.63;;;;;;;13.99;38.03;99579.94;6149609;23;20574;-77
2023/03/16 09:41:34;;;;;;;4.25;1.77;;;;;;;13.97;38.24;99595.06;6148463;23;20234;-77
2023/03/16 09:44:37;;;;;;;2.50;1.65;;;;;;;13.93;38.35;99585.66;6150937;23;20261;-77
2023/03/16 09:47:04;;;;;;;2.53;1.65;;;;;;;13.66;38.58;99591.28;6151031;23;20501;-78
2023/03/16 09:49:39;;;;;;;2.25;1.60;;;;;;;13.54;38.90;99586.97;6150683;23;20237;-78
2023/03/16 09:52:13;;;;;;;2.42;1.92;;;;;;;13.40;39.34;99582.72;6149973;23;20166;-77
2023/03/16 09:54:50;;;;;;;1.65;1.30;;;;;;;13.26;39.44;99583.78;6146342;23;20188;-77
2023/03/16 09:57:28;;;;;;;2.63;1.98;;;;;;;13.03;39.79;99577.53;6145979;23;20309;-77
2023/03/16 10:00:20;;;;;;;1.95;1.58;;;;;;;12.92;39.79;99566.94;6146032;23;20590;-79
2023/03/16 10:03:20;;;;;;;1.42;1.20;;;;;;;12.92;39.58;99569.59;6145110;23;20185;-77
2023/03/16 10:05:48;;;;;;;2.35;1.95;;;;;;;13.03;39.62;99567.81;6119356;23;20835;-77
2023/03/16 10:08:23;;;;;;;2.05;1.60;;;;;;;13.18;39.33;99560.56;6146603;23;20194;-77
2023/03/16 10:11:09;;;;;;;2.05;1.92;;;;;;;13.33;39.34;99550.69;6146208;23;20177;-77
2023/03/16 10:13:50;;;;;;;2.15;1.85;;;;;;;13.26;39.65;99546.84;6146926;23;20193;-77
2023/03/16 10:16:32;;;;;;;2.67;2.15;;;;;;;13.13;39.85;99549.53;6129357;23;21045;-76
2023/03/16 10:19:12;;;;;;;1.90;1.60;;;;;;;13.03;40.39;99554.63;6125685;23;20175;-77
2023/03/16 10:21:39;;;;;;;3.00;2.22;;;;;;;12.96;40.56;99555.22;6147753;23;20192;-76
2023/03/16 10:24:40;;;;;;;2.22;2.03;;;;;;;12.89;40.64;99565.38;6147435;23;20751;-76
2023/03/16 10:27:22;;;;;;;2.03;1.83;;;;;;;12.78;40.92;99557.44;6117742;23;20168;-76
2023/03/16 10:29:48;;;;;;;2.47;1.85;;;;;;;12.70;40.90;99555.34;6117729;23;20178;-77
2023/03/16 10:32:16;;;;;;;3.77;1.50;;;;;;;12.72;40.81;99552.59;6117711;23;20243;-76
2023/03/16 10:34:47;;;;;;;3.90;2.00;;;;;;;12.86;40.02;99541.88;6117637;23;20389;-77
2023/03/16 10:37:13;;;;;;;4.05;1.60;;;;;;;12.90;39.99;99553.03;6117357;23;20445;-77
2023/03/16 10:39:42;;;;;;;2.83;1.90;;;;;;;12.96;39.68;99540.25;6118457;23;20175;-76
2023/03/16 10:42:16;;;;;;;3.50;1.40;;;;;;;13.15;39.62;99539.72;6118232;23;20609;-76
2023/03/16 10:44:41;;;;;;;1.95;1.50;;;;;;;13.35;39.43;99535.59;6116922;23;20230;-76
2023/03/16 10:47:07;;;;;;;4.93;2.23;;;;;;;13.51;39.30;99535.25;6118890;23;20689;-77
2023/03/16 10:49:40;;;;;;;2.80;1.93;;;;;;;13.59;39.30;99538.16;6118613;23;20205;-77
2023/03/16 10:52:16;;;;;;;2.72;1.63;;;;;;;13.67;39.16;99537.56;6119919;23;20658;-77
2023/03/16 10:54:56;;;;;;;2.10;1.67;;;;;;;13.76;39.39;99538.63;6118212;23;20213;-77
2023/03/16 10:57:32;;;;;;;2.05;1.77;;;;;;;13.89;39.32;99539.34;6119017;23;20199;-77
2023/03/16 11:00:10;;;;;;;3.00;1.55;;;;;;;14.01;39.22;99535.72;6119036;23;20176;-77
2023/03/16 11:02:36;;;;;;;2.65;1.90;;;;;;;14.07;39.31;99532.63;6119420;23;20240;-78
2023/03/16 11:05:26;;;;;;;1.90;1.70;;;;;;;14.11;39.45;99534.03;6118712;23;20798;-78
2023/03/16 11:07:59;;;;;;;1.50;1.40;;;;;;;14.13;39.34;99526.00;6118198;23;20396;-78
2023/03/16 11:10:34;;;;;;;2.15;1.80;;;;;;;14.09;39.27;99511.34;6117698;23;20701;-77
2023/03/16 11:13:18;;;;;;;3.95;1.92;;;;;;;14.04;39.47;99517.03;6117903;23;20215;-78
2023/03/16 11:15:54;;;;;;;2.72;1.85;;;;;;;13.99;39.67;99527.13;6091164;23;20207;-78
2023/03/16 11:18:28;;;;;;;2.50;1.50;;;;;;;13.91;39.83;99522.44;6093578;23;20182;-77
2023/03/16 11:20:54;;;;;;;2.30;2.10;;;;;;;13.85;39.76;99529.97;6119117;23;20205;-78
2023/03/16 11:23:29;;;;;;;1.95;1.60;;;;;;;13.76;39.78;99518.34;6113923;23;20210;-77
2023/03/16 11:26:00;;;;;;;1.73;1.50;;;;;;;13.72;39.98;99517.75;6119687;23;20200;-78
2023/03/16 11:28:40;;;;;;;1.95;1.85;;;;;;;13.76;39.73;99520.16;6120987;23;20455;-78
2023/03/16 11:31:26;;;;;;;3.58;1.75;;;;;;;13.76;40.00;99517.50;6078142;23;20237;-78
2023/03/16 11:33:54;;;;;;;2.05;1.50;;;;;;;13.78;40.14;99521.72;6089830;23;20225;-77
2023/03/16 11:36:24;;;;;;;1.95;1.42;;;;;;;13.78;39.52;99511.16;6091136;23;20905;-77
2023/03/16 11:39:09;;;;;;;2.35;1.63;;;;;;;13.75;39.65;99500.00;6089987;23;20681;-77
2023/03/16 11:41:50;;;;;;;2.10;1.90;;;;;;;13.62;40.10;99505.41;6090907;23;20259;-77
2023/03/16 11:44:43;;;;;;;2.30;1.85;;;;;;;13.57;40.25;99497.81;6090266;23;20183;-77
2023/03/16 11:47:33;;;;;;;2.85;1.88;;;;;;;13.51;40.39;99498.31;6089850;23;20449;-77
2023/03/16 11:50:58;;;;;;;1.75;1.65;;;;;;;13.45;40.87;99488.25;6089767;23;20182;-77
2023/03/16 11:53:41;;;;;;;2.78;1.80;;;;;;;13.46;40.72;99495.19;6030098;23;20176;-78